FRS96 EDXH-EDXW
Flight info
| Callsign | FRS96 |
|---|---|
| Flight time | 0h 41m |
| Altitude | 3500 |
| Route | DCT |
| Aircraft | C172/L-DGY/L |
Departure
| Time | 2026-05-06 18:25 |
|---|---|
| Airport | Helgoland-Düne Airport (EDXH) |
Arrival
| Time | 2026-05-06 19:06 |
|---|---|
| Airport | Westerland Sylt Airport (EDXW) |
| Time | Latitude | Longitude | Altitude | Speed | Heading |
|---|---|---|---|---|---|
| 2026-05-06 18:17 | 54.18767 | 7.91611 | 7 ft | 0 kts | 144° |
| 2026-05-06 18:22 | 54.18753 | 7.91618 | 7 ft | 10 kts | 195° |
| 2026-05-06 18:22 | 54.18648 | 7.91584 | 7 ft | 14 kts | 192° |
| 2026-05-06 18:23 | 54.18578 | 7.91528 | 8 ft | 3 kts | 203° |
| 2026-05-06 18:23 | 54.18557 | 7.91509 | 8 ft | 4 kts | 212° |
| 2026-05-06 18:23 | 54.18538 | 7.91489 | 9 ft | 8 kts | 212° |
| 2026-05-06 18:23 | 54.18480 | 7.91429 | 11 ft | 8 kts | 214° |
| 2026-05-06 18:24 | 54.18470 | 7.91434 | 11 ft | 0 kts | 9° |
| 2026-05-06 18:24 | 54.18471 | 7.91434 | 11 ft | 0 kts | 27° |
| 2026-05-06 18:24 | 54.18601 | 7.91541 | 8 ft | 47 kts | 26° |
| 2026-05-06 18:25 | 54.18964 | 7.91889 | 85 ft | 70 kts | 23° |
| 2026-05-06 18:25 | 54.19331 | 7.92372 | 374 ft | 62 kts | 35° |
| 2026-05-06 18:25 | 54.19665 | 7.92942 | 490 ft | 77 kts | 37° |
| 2026-05-06 18:25 | 54.19968 | 7.93585 | 850 ft | 63 kts | 45° |
| 2026-05-06 18:26 | 54.20253 | 7.94318 | 928 ft | 83 kts | 51° |
| 2026-05-06 18:26 | 54.20497 | 7.95183 | 1220 ft | 79 kts | 64° |
| 2026-05-06 18:26 | 54.20680 | 7.96101 | 1403 ft | 85 kts | 57° |
| 2026-05-06 18:26 | 54.21075 | 7.96771 | 1687 ft | 76 kts | 34° |
| 2026-05-06 18:27 | 54.21500 | 7.97332 | 1876 ft | 82 kts | 47° |
| 2026-05-06 18:27 | 54.21885 | 7.98046 | 2085 ft | 81 kts | 45° |
| 2026-05-06 18:27 | 54.22340 | 7.98613 | 2298 ft | 82 kts | 33° |
| 2026-05-06 18:27 | 54.22848 | 7.99061 | 2542 ft | 83 kts | 32° |
| 2026-05-06 18:28 | 54.23358 | 7.99532 | 2721 ft | 83 kts | 40° |
| 2026-05-06 18:28 | 54.23788 | 8.00210 | 2848 ft | 91 kts | 48° |
| 2026-05-06 18:28 | 54.24246 | 8.01117 | 2790 ft | 110 kts | 53° |
| 2026-05-06 18:28 | 54.24738 | 8.02171 | 2789 ft | 111 kts | 53° |
| 2026-05-06 18:29 | 54.25219 | 8.03178 | 2873 ft | 108 kts | 52° |
| 2026-05-06 18:29 | 54.25699 | 8.04162 | 2950 ft | 108 kts | 52° |
| 2026-05-06 18:29 | 54.26182 | 8.05148 | 2996 ft | 110 kts | 52° |
| 2026-05-06 18:29 | 54.26685 | 8.06149 | 2998 ft | 112 kts | 51° |
| 2026-05-06 18:30 | 54.27193 | 8.07175 | 3003 ft | 114 kts | 52° |
| 2026-05-06 18:30 | 54.27707 | 8.08215 | 3004 ft | 114 kts | 52° |
| 2026-05-06 18:30 | 54.28229 | 8.09245 | 3005 ft | 114 kts | 51° |
| 2026-05-06 18:30 | 54.28747 | 8.10288 | 3006 ft | 116 kts | 52° |
| 2026-05-06 18:31 | 54.29265 | 8.11342 | 3004 ft | 115 kts | 51° |
| 2026-05-06 18:31 | 54.29784 | 8.12385 | 3005 ft | 116 kts | 51° |
| 2026-05-06 18:31 | 54.30294 | 8.13431 | 3004 ft | 115 kts | 52° |
| 2026-05-06 18:31 | 54.30807 | 8.14483 | 2998 ft | 115 kts | 52° |
| 2026-05-06 18:32 | 54.31264 | 8.15599 | 3000 ft | 114 kts | 57° |
| 2026-05-06 18:32 | 54.31715 | 8.16713 | 3002 ft | 114 kts | 56° |
| 2026-05-06 18:32 | 54.32174 | 8.17833 | 3002 ft | 115 kts | 56° |
| 2026-05-06 18:32 | 54.32628 | 8.18961 | 2997 ft | 114 kts | 57° |
| 2026-05-06 18:33 | 54.33076 | 8.20075 | 3000 ft | 113 kts | 57° |
| 2026-05-06 18:33 | 54.33535 | 8.21191 | 3001 ft | 115 kts | 56° |
| 2026-05-06 18:33 | 54.33999 | 8.22304 | 2999 ft | 114 kts | 56° |
| 2026-05-06 18:33 | 54.34461 | 8.23430 | 3003 ft | 115 kts | 57° |
| 2026-05-06 18:34 | 54.34923 | 8.24549 | 3001 ft | 115 kts | 56° |
| 2026-05-06 18:34 | 54.35332 | 8.25715 | 3005 ft | 113 kts | 63° |
| 2026-05-06 18:34 | 54.35704 | 8.26914 | 3000 ft | 113 kts | 60° |
| 2026-05-06 18:34 | 54.36373 | 8.27550 | 2987 ft | 121 kts | 3° |
| 2026-05-06 18:35 | 54.37204 | 8.27231 | 2992 ft | 122 kts | 354° |
| 2026-05-06 18:35 | 54.38002 | 8.26980 | 3071 ft | 110 kts | 356° |
| 2026-05-06 18:35 | 54.38690 | 8.26747 | 3185 ft | 93 kts | 355° |
| 2026-05-06 18:35 | 54.39289 | 8.26502 | 3278 ft | 84 kts | 355° |
| 2026-05-06 18:36 | 54.39868 | 8.26284 | 3289 ft | 87 kts | 358° |
| 2026-05-06 18:36 | 54.40468 | 8.26060 | 3292 ft | 89 kts | 359° |
| 2026-05-06 18:36 | 54.41079 | 8.25829 | 3295 ft | 91 kts | 357° |
| 2026-05-06 18:36 | 54.41703 | 8.25590 | 3303 ft | 93 kts | 355° |
| 2026-05-06 18:37 | 54.42341 | 8.25347 | 3306 ft | 94 kts | 357° |
| 2026-05-06 18:37 | 54.42979 | 8.25100 | 3312 ft | 94 kts | 358° |
| 2026-05-06 18:37 | 54.43626 | 8.24861 | 3308 ft | 96 kts | 358° |
| 2026-05-06 18:37 | 54.44284 | 8.24620 | 3308 ft | 97 kts | 357° |
| 2026-05-06 18:38 | 54.44955 | 8.24391 | 3310 ft | 99 kts | 356° |
| 2026-05-06 18:38 | 54.45640 | 8.24135 | 3308 ft | 102 kts | 356° |
| 2026-05-06 18:38 | 54.46339 | 8.23873 | 3311 ft | 103 kts | 358° |
| 2026-05-06 18:38 | 54.47044 | 8.23622 | 3313 ft | 104 kts | 356° |
| 2026-05-06 18:39 | 54.47749 | 8.23369 | 3308 ft | 103 kts | 357° |
| 2026-05-06 18:39 | 54.48445 | 8.23130 | 3310 ft | 101 kts | 357° |
| 2026-05-06 18:39 | 54.49137 | 8.22895 | 3310 ft | 101 kts | 356° |
| 2026-05-06 18:40 | 54.50518 | 8.22417 | 3314 ft | 102 kts | 358° |
| 2026-05-06 18:40 | 54.51217 | 8.22184 | 3314 ft | 103 kts | 355° |
| 2026-05-06 18:40 | 54.51918 | 8.21953 | 3313 ft | 103 kts | 355° |
| 2026-05-06 18:40 | 54.52622 | 8.21717 | 3317 ft | 103 kts | 356° |
| 2026-05-06 18:41 | 54.53322 | 8.21487 | 3317 ft | 103 kts | 355° |
| 2026-05-06 18:41 | 54.54021 | 8.21247 | 3320 ft | 102 kts | 357° |
| 2026-05-06 18:41 | 54.54719 | 8.21065 | 3315 ft | 101 kts | 356° |
| 2026-05-06 18:41 | 54.55418 | 8.20895 | 3316 ft | 102 kts | 359° |
| 2026-05-06 18:42 | 54.56125 | 8.20726 | 3315 ft | 102 kts | 357° |
| 2026-05-06 18:42 | 54.56829 | 8.20570 | 3312 ft | 102 kts | 359° |
| 2026-05-06 18:42 | 54.57538 | 8.20481 | 3317 ft | 102 kts | 3° |
| 2026-05-06 18:42 | 54.58243 | 8.20399 | 3324 ft | 102 kts | 3° |
| 2026-05-06 18:43 | 54.58516 | 8.20366 | 3320 ft | 103 kts | 1° |
| 2026-05-06 18:43 | 54.59232 | 8.20270 | 3320 ft | 104 kts | 2° |
| 2026-05-06 18:43 | 54.59960 | 8.20195 | 3320 ft | 105 kts | 4° |
| 2026-05-06 18:43 | 54.60684 | 8.20118 | 3321 ft | 103 kts | 4° |
| 2026-05-06 18:44 | 54.61394 | 8.20041 | 3314 ft | 102 kts | 2° |
| 2026-05-06 18:44 | 54.62100 | 8.19949 | 3319 ft | 102 kts | 2° |
| 2026-05-06 18:44 | 54.62815 | 8.19851 | 3316 ft | 102 kts | 1° |
| 2026-05-06 18:44 | 54.63524 | 8.19759 | 3314 ft | 102 kts | 3° |
| 2026-05-06 18:45 | 54.64216 | 8.19685 | 3315 ft | 100 kts | 2° |
| 2026-05-06 18:45 | 54.64912 | 8.19598 | 3317 ft | 100 kts | 3° |
| 2026-05-06 18:45 | 54.65614 | 8.19501 | 3317 ft | 100 kts | 7° |
| 2026-05-06 18:45 | 54.66280 | 8.19724 | 3313 ft | 98 kts | 20° |
| 2026-05-06 18:46 | 54.66958 | 8.19938 | 3318 ft | 99 kts | 16° |
| 2026-05-06 18:46 | 54.67640 | 8.20178 | 3321 ft | 100 kts | 19° |
| 2026-05-06 18:46 | 54.68321 | 8.20404 | 3318 ft | 99 kts | 18° |
| 2026-05-06 18:46 | 54.68998 | 8.20628 | 3318 ft | 99 kts | 18° |
| 2026-05-06 18:47 | 54.69663 | 8.20914 | 3317 ft | 98 kts | 22° |
| 2026-05-06 18:47 | 54.70339 | 8.21221 | 3245 ft | 102 kts | 21° |
| 2026-05-06 18:47 | 54.71038 | 8.21552 | 3180 ft | 106 kts | 22° |
| 2026-05-06 18:47 | 54.71761 | 8.21903 | 3108 ft | 108 kts | 20° |
| 2026-05-06 18:48 | 54.72483 | 8.22240 | 3027 ft | 108 kts | 20° |
| 2026-05-06 18:48 | 54.73196 | 8.22581 | 3017 ft | 105 kts | 21° |
| 2026-05-06 18:48 | 54.73884 | 8.22911 | 3018 ft | 103 kts | 20° |
| 2026-05-06 18:48 | 54.74575 | 8.23267 | 3011 ft | 101 kts | 25° |
| 2026-05-06 18:49 | 54.75186 | 8.23757 | 3009 ft | 96 kts | 47° |
| 2026-05-06 18:49 | 54.75658 | 8.24580 | 3007 ft | 97 kts | 47° |
| 2026-05-06 18:49 | 54.76142 | 8.25394 | 3009 ft | 97 kts | 47° |
| 2026-05-06 18:49 | 54.76643 | 8.26205 | 3011 ft | 100 kts | 45° |
| 2026-05-06 18:50 | 54.77149 | 8.27021 | 3014 ft | 99 kts | 46° |
| 2026-05-06 18:50 | 54.77716 | 8.27714 | 3011 ft | 100 kts | 34° |
| 2026-05-06 18:50 | 54.78307 | 8.28342 | 3013 ft | 100 kts | 33° |
| 2026-05-06 18:50 | 54.78930 | 8.28890 | 3013 ft | 101 kts | 31° |
| 2026-05-06 18:51 | 54.79556 | 8.29453 | 3011 ft | 101 kts | 32° |
| 2026-05-06 18:51 | 54.80182 | 8.29994 | 3014 ft | 100 kts | 31° |
| 2026-05-06 18:51 | 54.80810 | 8.30540 | 3012 ft | 101 kts | 31° |
| 2026-05-06 18:51 | 54.81433 | 8.31081 | 3006 ft | 99 kts | 32° |
| 2026-05-06 18:52 | 54.82058 | 8.31624 | 2931 ft | 104 kts | 30° |
| 2026-05-06 18:52 | 54.82715 | 8.32191 | 2854 ft | 106 kts | 32° |
| 2026-05-06 18:52 | 54.83370 | 8.32765 | 2818 ft | 103 kts | 31° |
| 2026-05-06 18:52 | 54.84034 | 8.33211 | 2817 ft | 102 kts | 24° |
| 2026-05-06 18:53 | 54.84711 | 8.33556 | 2814 ft | 102 kts | 20° |
| 2026-05-06 18:53 | 54.85397 | 8.33847 | 2809 ft | 101 kts | 18° |
| 2026-05-06 18:53 | 54.86075 | 8.34097 | 2810 ft | 98 kts | 18° |
| 2026-05-06 18:53 | 54.86744 | 8.34332 | 2808 ft | 98 kts | 17° |
| 2026-05-06 18:54 | 54.87411 | 8.34567 | 2811 ft | 98 kts | 16° |
| 2026-05-06 18:54 | 54.88089 | 8.34791 | 2805 ft | 99 kts | 18° |
| 2026-05-06 18:54 | 54.88758 | 8.35017 | 2811 ft | 98 kts | 17° |
| 2026-05-06 18:54 | 54.89430 | 8.35230 | 2807 ft | 99 kts | 18° |
| 2026-05-06 18:55 | 54.90121 | 8.35318 | 2805 ft | 101 kts | 5° |
| 2026-05-06 18:55 | 54.90823 | 8.35294 | 2807 ft | 100 kts | 7° |
| 2026-05-06 18:55 | 54.91518 | 8.35284 | 2809 ft | 100 kts | 7° |
| 2026-05-06 18:55 | 54.92219 | 8.35256 | 2807 ft | 101 kts | 4° |
| 2026-05-06 18:56 | 54.92926 | 8.35226 | 2814 ft | 102 kts | 5° |
| 2026-05-06 18:56 | 54.93638 | 8.35218 | 2817 ft | 102 kts | 6° |
| 2026-05-06 18:56 | 54.94352 | 8.35195 | 2814 ft | 102 kts | 7° |
| 2026-05-06 18:56 | 54.95064 | 8.35168 | 2813 ft | 102 kts | 4° |
| 2026-05-06 18:57 | 54.95771 | 8.35154 | 2813 ft | 101 kts | 7° |
| 2026-05-06 18:57 | 54.96477 | 8.35123 | 2819 ft | 102 kts | 6° |
| 2026-05-06 18:57 | 54.97174 | 8.35090 | 2811 ft | 101 kts | 7° |
| 2026-05-06 18:57 | 54.97873 | 8.35064 | 2814 ft | 100 kts | 5° |
| 2026-05-06 18:58 | 54.98569 | 8.35041 | 2814 ft | 100 kts | 5° |
| 2026-05-06 18:58 | 54.99262 | 8.35030 | 2812 ft | 100 kts | 4° |
| 2026-05-06 18:58 | 54.99972 | 8.35023 | 2647 ft | 103 kts | 6° |
| 2026-05-06 18:58 | 55.00685 | 8.35068 | 2470 ft | 102 kts | 12° |
| 2026-05-06 18:59 | 55.01391 | 8.35188 | 2293 ft | 102 kts | 11° |
| 2026-05-06 18:59 | 55.02095 | 8.35287 | 2113 ft | 100 kts | 11° |
| 2026-05-06 18:59 | 55.02651 | 8.35833 | 1930 ft | 96 kts | 64° |
| 2026-05-06 18:59 | 55.02749 | 8.36981 | 1747 ft | 96 kts | 78° |
| 2026-05-06 19:00 | 55.02833 | 8.38134 | 1575 ft | 97 kts | 79° |
| 2026-05-06 19:00 | 55.02848 | 8.39326 | 1399 ft | 101 kts | 85° |
| 2026-05-06 19:00 | 55.02834 | 8.40570 | 1223 ft | 102 kts | 84° |
| 2026-05-06 19:00 | 55.02825 | 8.41364 | 1206 ft | 92 kts | 85° |
| 2026-05-06 19:01 | 55.02719 | 8.42733 | 1201 ft | 85 kts | 108° |
| 2026-05-06 19:01 | 55.02475 | 8.43656 | 1199 ft | 84 kts | 110° |
| 2026-05-06 19:01 | 55.02111 | 8.44457 | 1202 ft | 82 kts | 117° |
| 2026-05-06 19:01 | 55.01624 | 8.45017 | 1196 ft | 88 kts | 155° |
| 2026-05-06 19:02 | 55.00940 | 8.45113 | 1225 ft | 110 kts | 180° |
| 2026-05-06 19:02 | 55.00129 | 8.45056 | 1222 ft | 121 kts | 182° |
| 2026-05-06 19:02 | 54.99331 | 8.44503 | 1225 ft | 128 kts | 206° |
| 2026-05-06 19:02 | 54.98490 | 8.43855 | 1221 ft | 136 kts | 203° |
| 2026-05-06 19:03 | 54.97623 | 8.43180 | 1222 ft | 134 kts | 203° |
| 2026-05-06 19:03 | 54.96787 | 8.42544 | 1220 ft | 132 kts | 203° |
| 2026-05-06 19:03 | 54.95961 | 8.41926 | 1211 ft | 125 kts | 202° |
| 2026-05-06 19:03 | 54.95178 | 8.41310 | 1188 ft | 122 kts | 204° |
| 2026-05-06 19:04 | 54.94398 | 8.40732 | 1123 ft | 121 kts | 202° |
| 2026-05-06 19:04 | 54.93585 | 8.40300 | 1013 ft | 126 kts | 190° |
| 2026-05-06 19:04 | 54.92728 | 8.40202 | 1001 ft | 120 kts | 180° |
| 2026-05-06 19:04 | 54.91891 | 8.40083 | 865 ft | 122 kts | 186° |
| 2026-05-06 19:05 | 54.91038 | 8.39896 | 628 ft | 125 kts | 191° |
| 2026-05-06 19:05 | 54.90310 | 8.39235 | 528 ft | 109 kts | 242° |
| 2026-05-06 19:05 | 54.90129 | 8.38126 | 450 ft | 93 kts | 277° |
| 2026-05-06 19:05 | 54.90171 | 8.36950 | 391 ft | 102 kts | 285° |
| 2026-05-06 19:06 | 54.90300 | 8.35743 | 293 ft | 98 kts | 301° |
| 2026-05-06 19:06 | 54.90656 | 8.34858 | 86 ft | 75 kts | 328° |
| 2026-05-06 19:06 | 54.91003 | 8.34435 | 66 ft | 56 kts | 332° |
| 2026-05-06 19:06 | 54.91278 | 8.34108 | 54 ft | 29 kts | 320° |
| 2026-05-06 19:07 | 54.91254 | 8.33822 | 51 ft | 37 kts | 233° |
| 2026-05-06 19:07 | 54.91173 | 8.33601 | 51 ft | 28 kts | 240° |
| 2026-05-06 19:07 | 54.91056 | 8.33245 | 52 ft | 27 kts | 240° |
| 2026-05-06 19:07 | 54.91013 | 8.33006 | 53 ft | 18 kts | 290° |
| 2026-05-06 19:08 | 54.91097 | 8.32837 | 53 ft | 19 kts | 311° |
| 2026-05-06 19:08 | 54.91184 | 8.32666 | 53 ft | 17 kts | 318° |
| 2026-05-06 19:08 | 54.91230 | 8.32554 | 53 ft | 6 kts | 260° |
| 2026-05-06 19:08 | 54.91202 | 8.32529 | 53 ft | 0 kts | 115° |
| 2026-05-06 19:09 | 54.91202 | 8.32530 | 53 ft | 0 kts | 74° |